Time;durP1;ratioP1;P1;durP2;ratioP2;P2;SDS_P1;SDS_P2;PMS_P1;PMS_P2;Temp;Humidity;BMP_temperature;BMP_pressure;BME280_temperature;BME280_humidity;BME280_pressure;Samples;Min_cycle;Max_cycle;Signal;HPM_P1;HPM_P2
2023/05/01 00:00:59;;;;;;;;;22.00;21.67;;;;;16.09;51.07;100943.06;4957901;28;46029;-61
2023/05/01 00:03:25;;;;;;;;;22.33;21.67;;;;;16.09;51.14;100938.66;4957840;28;45552;-60
2023/05/01 00:05:50;;;;;;;;;22.00;22.00;;;;;16.09;51.08;100938.66;4958362;28;45545;-61
2023/05/01 00:08:16;;;;;;;;;23.00;22.00;;;;;16.07;50.74;100937.88;4957895;28;45580;-60
2023/05/01 00:10:41;;;;;;;;;26.33;24.33;;;;;16.10;51.75;100943.00;4956826;28;45501;-61
2023/05/01 00:13:08;;;;;;;;;24.67;21.33;;;;;16.07;51.00;100934.34;4955574;28;45559;-60
2023/05/01 00:15:33;;;;;;;;;23.33;23.33;;;;;16.04;51.08;100932.72;4957779;28;45481;-61
2023/05/01 00:17:59;;;;;;;;;21.67;20.00;;;;;16.07;51.55;100929.91;4957667;28;45549;-61
2023/05/01 00:20:28;;;;;;;;;23.33;23.00;;;;;16.03;51.01;100925.69;4957656;28;46016;-62
2023/05/01 00:22:54;;;;;;;;;24.33;22.67;;;;;16.09;51.60;100929.81;4957690;28;45546;-60
2023/05/01 00:25:19;;;;;;;;;21.33;20.00;;;;;16.08;51.17;100928.09;4957682;28;45459;-61
2023/05/01 00:27:44;;;;;;;;;23.67;22.33;;;;;16.04;51.19;100927.41;4956573;28;45587;-60
2023/05/01 00:30:10;;;;;;;;;25.67;22.00;;;;;16.03;51.45;100930.13;4956046;28;46183;-61
2023/05/01 00:32:37;;;;;;;;;20.67;19.67;;;;;16.01;51.33;100922.28;4956494;28;45482;-60
2023/05/01 00:35:03;;;;;;;;;21.33;21.33;;;;;16.00;51.90;100925.84;4956450;28;45542;-60
2023/05/01 00:37:28;;;;;;;;;22.33;22.33;;;;;15.97;52.00;100923.38;4950576;28;45522;-60
2023/05/01 00:39:54;;;;;;;;;24.00;24.00;;;;;16.00;52.11;100920.53;4951226;28;46757;-60
2023/05/01 00:42:19;;;;;;;;;22.33;20.67;;;;;15.98;51.17;100911.81;4957349;28;45401;-61
2023/05/01 00:44:45;;;;;;;;;22.33;21.33;;;;;15.98;51.00;100911.81;4957116;28;45450;-60
2023/05/01 00:47:10;;;;;;;;;22.67;21.67;;;;;15.96;52.31;100908.41;4956688;28;45434;-60
2023/05/01 00:49:36;;;;;;;;;24.33;22.33;;;;;15.96;52.23;100910.16;4957337;28;45426;-60
2023/05/01 00:52:01;;;;;;;;;21.33;19.33;;;;;15.94;51.90;100907.63;4957164;28;45383;-60
2023/05/01 00:54:27;;;;;;;;;23.67;23.33;;;;;15.89;52.06;100896.38;4956287;28;45408;-60
2023/05/01 00:56:53;;;;;;;;;20.00;19.00;;;;;15.91;51.60;100905.13;4957378;28;45620;-60
2023/05/01 00:59:19;;;;;;;;;24.00;22.67;;;;;15.89;52.17;100899.88;4956743;28;46211;-60
2023/05/01 01:01:45;;;;;;;;;24.33;24.33;;;;;15.88;52.11;100897.34;4955940;28;46162;-61
2023/05/01 01:04:11;;;;;;;;;23.00;21.00;;;;;15.89;52.66;100899.03;4957143;28;45762;-61
2023/05/01 01:06:51;;;;;;;;;24.00;22.67;;;;;15.87;52.54;100892.94;4957065;28;45419;-60
2023/05/01 01:09:55;;;;;;;;;24.67;23.67;;;;;15.84;51.88;100888.66;4952823;28;46203;-60
2023/05/01 01:12:38;;;;;;;;;23.00;21.33;;;;;15.83;53.10;100881.66;4956539;28;45453;-60
2023/05/01 01:15:17;;;;;;;;;25.67;24.00;;;;;15.84;52.87;100882.50;4956714;28;45486;-60
2023/05/01 01:17:57;;;;;;;;;21.67;21.67;;;;;15.77;52.47;100871.38;4957076;28;45391;-61
2023/05/01 01:20:25;;;;;;;;;21.33;21.33;;;;;15.81;52.62;100872.06;4956591;28;46309;-61
2023/05/01 01:23:04;;;;;;;;;23.67;23.33;;;;;15.79;52.37;100871.28;4955652;28;45415;-60
2023/05/01 01:26:01;;;;;;;;;26.33;25.67;;;;;15.75;52.93;100864.44;4956885;28;45467;-60
2023/05/01 01:28:39;;;;;;;;;23.00;23.00;;;;;15.76;52.76;100867.00;4956552;28;45414;-60
2023/05/01 01:31:21;;;;;;;;;22.33;22.33;;;;;15.74;53.49;100871.50;4955108;28;46252;-61
2023/05/01 01:33:53;;;;;;;;;22.33;22.33;;;;;15.73;53.81;100867.16;4955726;28;45567;-61
2023/05/01 01:36:30;;;;;;;;;23.67;20.67;;;;;15.68;53.13;100858.56;4955821;28;45447;-61
2023/05/01 01:39:09;;;;;;;;;21.67;19.00;;;;;15.68;53.67;100858.56;4942713;28;45474;-60
2023/05/01 01:41:38;;;;;;;;;25.00;24.00;;;;;15.68;52.61;100866.50;4950509;28;46185;-61
2023/05/01 01:44:15;;;;;;;;;23.00;23.00;;;;;15.66;53.15;100861.31;4943969;28;45514;-61
2023/05/01 01:46:41;;;;;;;;;24.00;23.33;;;;;15.60;53.89;100852.78;4956132;28;45420;-61
2023/05/01 01:49:14;;;;;;;;;23.33;22.00;;;;;15.62;53.77;100859.72;4943785;28;45528;-60
2023/05/01 01:51:41;;;;;;;;;21.67;21.67;;;;;15.60;53.40;100858.94;4955511;28;45393;-61
2023/05/01 01:54:08;;;;;;;;;19.33;19.33;;;;;15.54;54.32;100853.97;4955026;28;45632;-60
2023/05/01 01:56:36;;;;;;;;;25.67;24.67;;;;;15.54;54.14;100861.94;4955711;28;45412;-60
2023/05/01 01:59:04;;;;;;;;;24.67;23.00;;;;;15.54;54.26;100859.28;4952795;28;45494;-60
2023/05/01 02:01:31;;;;;;;;;29.67;27.00;;;;;15.56;54.38;100864.50;4953163;28;45426;-60
2023/05/01 02:03:58;;;;;;;;;28.00;24.67;;;;;15.51;54.78;100863.88;4953991;28;45466;-60
2023/05/01 02:06:25;;;;;;;;;20.33;20.33;;;;;15.45;54.24;100865.06;4953848;28;45451;-60
2023/05/01 02:08:52;;;;;;;;;23.67;22.33;;;;;15.46;53.94;100864.97;4954315;28;45461;-60
2023/05/01 02:11:20;;;;;;;;;27.33;25.33;;;;;15.44;54.49;100864.19;4955078;28;46181;-61
2023/05/01 02:13:48;;;;;;;;;23.33;23.33;;;;;15.40;54.32;100865.28;4955366;28;45505;-61
2023/05/01 02:16:15;;;;;;;;;20.00;20.00;;;;;15.33;53.87;100863.88;4954633;28;45506;-61
2023/05/01 02:18:41;;;;;;;;;18.33;17.00;;;;;15.37;54.24;100877.84;4952531;28;45665;-60
2023/05/01 02:21:09;;;;;;;;;23.33;21.67;;;;;15.34;54.17;100865.63;4954977;28;46242;-61
2023/05/01 02:23:36;;;;;;;;;24.33;21.33;;;;;15.29;54.67;100865.00;4955898;28;45371;-60
2023/05/01 02:26:03;;;;;;;;;23.33;23.33;;;;;15.31;53.89;100870.19;4954161;28;45498;-60
2023/05/01 02:28:29;;;;;;;;;21.33;20.33;;;;;15.28;54.23;100870.34;4954468;28;45375;-61
2023/05/01 02:30:56;;;;;;;;;24.00;23.00;;;;;15.20;54.58;100863.63;4954845;28;45504;-64
2023/05/01 02:33:21;;;;;;;;;22.67;18.67;;;;;15.21;54.78;100870.66;4953865;28;45370;-60
2023/05/01 02:35:47;;;;;;;;;21.00;21.00;;;;;15.18;54.25;100865.53;4954938;28;45474;-61
2023/05/01 02:38:13;;;;;;;;;22.67;21.33;;;;;15.17;55.00;100873.53;4953837;28;45723;-61
2023/05/01 02:40:45;;;;;;;;;27.00;22.67;;;;;15.13;54.51;100869.34;4954669;28;46180;-61
2023/05/01 02:43:15;;;;;;;;;19.00;18.50;;;;;15.13;54.29;100869.34;4954106;28;45546;-61
2023/05/01 02:45:42;;;;;;;;;21.00;21.00;;;;;15.10;54.39;100870.34;4955138;28;45398;-61
2023/05/01 02:48:12;;;;;;;;;20.00;17.67;;;;;15.09;54.80;100875.72;4951441;28;45647;-61
2023/05/01 02:50:41;;;;;;;;;19.00;19.00;;;;;15.08;54.24;100879.31;4954105;28;45434;-61
2023/05/01 02:53:08;;;;;;;;;19.00;19.00;;;;;15.06;55.43;100870.56;4949782;28;45709;-60
2023/05/01 02:55:34;;;;;;;;;24.00;21.67;;;;;15.02;55.48;100867.22;4955281;28;45455;-60
2023/05/01 02:58:00;;;;;;;;;21.00;21.00;;;;;14.99;54.92;100868.25;4949741;28;45558;-60
2023/05/01 03:00:26;;;;;;;;;22.00;19.67;;;;;14.98;54.34;100870.94;4944453;28;45684;-60
2023/05/01 03:02:51;;;;;;;;;23.67;20.33;;;;;14.93;55.42;100862.38;4952703;28;45685;-60
2023/05/01 03:05:16;;;;;;;;;21.33;21.33;;;;;14.96;55.19;100876.34;4953615;28;46216;-60
2023/05/01 03:07:42;;;;;;;;;21.67;21.67;;;;;14.96;54.78;100871.03;4954808;28;45414;-60
2023/05/01 03:10:07;;;;;;;;;19.33;18.33;;;;;14.95;55.09;100869.31;4954158;28;48915;-60
2023/05/01 03:12:33;;;;;;;;;22.67;21.33;;;;;14.89;55.16;100863.47;4954539;28;45385;-60
2023/05/01 03:14:58;;;;;;;;;22.00;21.67;;;;;14.88;55.25;100864.38;4954588;28;45667;-60
2023/05/01 03:17:24;;;;;;;;;23.00;21.67;;;;;14.86;55.36;100869.78;4948345;28;45678;-60
2023/05/01 03:19:50;;;;;;;;;22.33;21.33;;;;;14.87;55.58;100857.38;4957499;28;46342;-60
2023/05/01 03:22:16;;;;;;;;;21.33;20.33;;;;;14.85;56.32;100865.38;4945909;28;45454;-60
2023/05/01 03:24:41;;;;;;;;;22.67;22.67;;;;;14.79;55.68;100865.69;4958686;28;45385;-60
2023/05/01 03:27:06;;;;;;;;;28.00;25.00;;;;;14.80;56.41;100860.34;4958325;28;45461;-60
2023/05/01 03:29:33;;;;;;;;;22.67;21.67;;;;;14.77;56.72;100876.34;4958284;28;45936;-60
2023/05/01 03:31:58;;;;;;;;;24.00;24.00;;;;;14.76;56.62;100864.06;4958513;28;45507;-60
2023/05/01 03:34:24;;;;;;;;;32.00;28.33;;;;;14.69;56.68;100865.28;4958368;28;45591;-60
2023/05/01 03:36:49;;;;;;;;;29.67;29.00;;;;;14.65;56.33;100855.78;4957267;28;45681;-60
2023/05/01 03:39:15;;;;;;;;;27.67;25.33;;;;;14.70;56.83;100864.38;4957455;28;45481;-60
2023/05/01 03:41:40;;;;;;;;;27.00;26.33;;;;;14.68;57.20;100870.66;4958198;28;45443;-60
2023/05/01 03:44:05;;;;;;;;;33.67;31.00;;;;;14.61;57.46;100866.59;4957027;28;45502;-60
2023/05/01 03:46:31;;;;;;;;;29.33;26.67;;;;;14.62;57.79;100870.97;4958554;28;45946;-60
2023/05/01 03:48:56;;;;;;;;;30.33;28.33;;;;;14.58;57.90;100868.44;4957846;28;54337;-60
2023/05/01 03:51:21;;;;;;;;;32.00;30.00;;;;;14.61;58.54;100872.72;4956844;28;45505;-60
2023/05/01 03:53:47;;;;;;;;;32.33;31.00;;;;;14.59;58.06;100869.31;4956771;28;45524;-60
2023/05/01 03:56:12;;;;;;;;;34.67;31.67;;;;;14.48;58.72;100861.84;4956975;28;45521;-60
2023/05/01 03:58:37;;;;;;;;;36.00;32.67;;;;;14.55;58.60;100873.03;4952316;28;48029;-60
2023/05/01 04:01:03;;;;;;;;;38.33;32.67;;;;;14.49;58.98;100871.50;4951450;28;45479;-60
2023/05/01 04:03:28;;;;;;;;;35.33;33.00;;;;;14.50;58.36;100877.66;4958060;28;45464;-60
2023/05/01 04:05:54;;;;;;;;;33.67;32.67;;;;;14.47;59.18;100878.66;4957297;28;45368;-60
2023/05/01 04:08:19;;;;;;;;;33.33;30.33;;;;;14.45;58.42;100877.84;4957594;28;45628;-60
2023/05/01 04:10:44;;;;;;;;;38.25;33.25;;;;;14.44;59.45;100870.84;4957788;28;45507;-60
2023/05/01 04:13:10;;;;;;;;;40.67;36.00;;;;;14.43;59.51;100873.59;4958100;28;45448;-60
2023/05/01 04:15:37;;;;;;;;;37.00;34.00;;;;;14.43;59.46;100874.44;4957788;28;45738;-60
2023/05/01 04:18:02;;;;;;;;;44.25;37.00;;;;;14.41;59.18;100868.34;4957489;28;45526;-60
2023/05/01 04:20:28;;;;;;;;;41.50;36.00;;;;;14.41;59.32;100867.50;4954882;28;45418;-60
2023/05/01 04:22:53;;;;;;;;;42.75;34.00;;;;;14.34;59.43;100857.19;4954516;28;45552;-60
2023/05/01 04:25:19;;;;;;;;;46.00;37.75;;;;;14.41;59.42;100867.50;4956545;28;45517;-60
2023/05/01 04:27:45;;;;;;;;;40.25;35.25;;;;;14.39;59.96;100878.16;4955811;28;45399;-60
2023/05/01 04:30:10;;;;;;;;;42.00;37.00;;;;;14.39;60.11;100880.78;4956243;28;45426;-61
2023/05/01 04:32:35;;;;;;;;;41.75;36.00;;;;;14.40;60.20;100879.00;4956496;28;45469;-60
2023/05/01 04:35:01;;;;;;;;;48.00;39.75;;;;;14.36;60.22;100879.16;4956376;28;45417;-60
2023/05/01 04:37:26;;;;;;;;;49.00;39.25;;;;;14.39;59.99;100894.03;4951399;28;46149;-60
2023/05/01 04:39:52;;;;;;;;;41.50;34.50;;;;;14.33;60.58;100876.66;4956747;28;45407;-60
2023/05/01 04:42:17;;;;;;;;;48.50;40.50;;;;;14.41;60.32;100893.97;4957326;28;45379;-60
2023/05/01 04:44:44;;;;;;;;;46.50;39.00;;;;;14.37;60.24;100887.94;4957185;28;45541;-61
2023/05/01 04:47:09;;;;;;;;;46.00;39.25;;;;;14.40;60.38;100892.22;4956768;28;45503;-61
2023/05/01 04:49:35;;;;;;;;;45.75;39.00;;;;;14.39;60.52;100896.66;4957198;28;45435;-61
2023/05/01 04:52:00;;;;;;;;;49.00;40.50;;;;;14.36;60.97;100892.38;4955025;28;45371;-61
2023/05/01 04:54:26;;;;;;;;;49.75;42.50;;;;;14.40;60.92;100895.75;4957172;28;45391;-60
2023/05/01 04:56:51;;;;;;;;;50.00;41.50;;;;;14.38;61.08;100891.47;4956276;28;45972;-60
2023/05/01 04:59:17;;;;;;;;;50.00;39.50;;;;;14.35;61.26;100895.97;4956755;28;45450;-64
2023/05/01 05:01:42;;;;;;;;;52.00;43.00;;;;;14.40;61.19;100892.22;4954806;28;45597;-61
2023/05/01 05:04:07;;;;;;;;;50.00;41.25;;;;;14.40;60.95;100898.41;4957119;28;45554;-60
2023/05/01 05:06:33;;;;;;;;;47.75;41.00;;;;;14.36;60.95;100897.66;4955128;28;54543;-62
2023/05/01 05:08:58;;;;;;;;;49.00;39.75;;;;;14.39;61.06;100895.81;4956920;28;45474;-61
2023/05/01 05:11:25;;;;;;;;;50.00;40.75;;;;;14.40;60.88;100898.41;4957051;28;45521;-61
2023/05/01 05:13:50;;;;;;;;;48.25;40.75;;;;;14.38;60.64;100905.56;4956845;28;45398;-61
2023/05/01 05:16:16;;;;;;;;;53.25;42.75;;;;;14.42;61.05;100908.91;4955595;28;46346;-61
2023/05/01 05:18:41;;;;;;;;;50.00;39.75;;;;;14.40;60.81;100913.41;4955225;28;46218;-60
2023/05/01 05:21:10;;;;;;;;;49.50;41.50;;;;;14.36;60.99;100910.06;4956885;28;45472;-61
2023/05/01 05:23:35;;;;;;;;;53.00;42.50;;;;;14.31;61.22;100907.59;4956918;28;45448;-61
2023/05/01 05:26:01;;;;;;;;;56.50;45.25;;;;;14.32;61.51;100913.78;4956623;28;45379;-60
2023/05/01 05:28:27;;;;;;;;;50.75;41.00;;;;;14.31;61.66;100914.69;4956829;28;45457;-61
2023/05/01 05:30:54;;;;;;;;;49.50;41.75;;;;;14.28;61.75;100909.53;4955503;28;45521;-61
2023/05/01 05:33:19;;;;;;;;;52.50;44.25;;;;;14.28;61.11;100910.41;4955600;28;45437;-60
2023/05/01 05:35:45;;;;;;;;;48.25;39.50;;;;;14.33;61.05;100911.03;4954041;28;46121;-61
2023/05/01 05:38:10;;;;;;;;;50.75;41.75;;;;;14.33;61.41;100916.34;4955547;28;45553;-61
2023/05/01 05:40:35;;;;;;;;;52.00;43.50;;;;;14.30;61.27;100911.19;4955618;28;48995;-60
2023/05/01 05:43:01;;;;;;;;;52.75;41.75;;;;;14.36;60.86;100918.84;4956926;28;45362;-61
2023/05/01 05:45:26;;;;;;;;;51.00;41.50;;;;;14.38;60.92;100916.13;4955673;28;45604;-60
2023/05/01 05:47:51;;;;;;;;;50.75;42.00;;;;;14.42;60.86;100916.84;4956786;28;45554;-60
2023/05/01 05:50:17;;;;;;;;;52.00;41.00;;;;;14.44;60.54;100918.50;4956556;28;45402;-60
2023/05/01 05:52:42;;;;;;;;;53.75;43.00;;;;;14.47;60.62;100920.13;4956228;28;45540;-60
2023/05/01 05:55:08;;;;;;;;;56.75;45.25;;;;;14.50;60.46;100925.28;4955077;28;46238;-61
2023/05/01 05:57:36;;;;;;;;;52.00;43.00;;;;;14.46;60.83;100919.28;4956201;28;45514;-61
2023/05/01 06:00:04;;;;;;;;;49.75;41.00;;;;;14.44;60.27;100909.69;4956138;28;45374;-61
2023/05/01 06:02:30;;;;;;;;;51.00;43.50;;;;;14.45;60.69;100917.56;4955253;28;45609;-61
2023/05/01 06:04:55;;;;;;;;;46.25;40.25;;;;;14.46;60.74;100913.13;4955791;28;45374;-61
2023/05/01 06:07:21;;;;;;;;;51.50;43.00;;;;;14.43;60.44;100903.56;4955329;28;45419;-61
2023/05/01 06:09:48;;;;;;;;;53.75;44.50;;;;;14.48;60.79;100911.25;4955933;28;45379;-61
2023/05/01 06:12:13;;;;;;;;;48.50;40.50;;;;;14.43;60.41;100900.06;4956018;28;47862;-60
2023/05/01 06:14:39;;;;;;;;;54.25;44.25;;;;;14.54;60.89;100906.59;4956056;28;46086;-61
2023/05/01 06:17:05;;;;;;;;;50.00;41.00;;;;;14.52;60.47;100910.19;4953583;28;45604;-62
2023/05/01 06:19:31;;;;;;;;;55.75;44.25;;;;;14.55;60.28;100920.66;4955448;28;45573;-60
2023/05/01 06:21:56;;;;;;;;;52.75;43.00;;;;;14.52;60.69;100918.13;4955178;28;45446;-61
2023/05/01 06:24:21;;;;;;;;;54.00;43.00;;;;;14.48;61.00;100927.13;4956069;28;45981;-61
2023/05/01 06:26:47;;;;;;;;;54.00;44.25;;;;;14.45;60.83;100922.00;4955603;28;45439;-61
2023/05/01 06:29:12;;;;;;;;;57.25;44.25;;;;;14.41;61.18;100921.28;4956188;28;45623;-61
2023/05/01 06:31:37;;;;;;;;;54.75;44.50;;;;;14.42;60.70;100935.38;4956005;28;45546;-61
2023/05/01 06:34:03;;;;;;;;;55.00;43.50;;;;;14.39;60.95;100922.28;4955682;28;46025;-60
2023/05/01 06:36:28;;;;;;;;;54.50;44.00;;;;;14.34;60.64;100925.97;4954225;28;45547;-61
2023/05/01 06:38:53;;;;;;;;;51.00;42.50;;;;;14.34;61.54;100927.78;4950618;28;45696;-60
2023/05/01 06:41:20;;;;;;;;;54.00;45.50;;;;;14.36;61.53;100929.41;4953921;28;45625;-61
2023/05/01 06:43:46;;;;;;;;;51.50;42.75;;;;;14.35;60.84;100926.88;4954648;28;46218;-60
2023/05/01 06:46:11;;;;;;;;;54.25;45.00;;;;;14.39;61.56;100932.88;4954743;28;45674;-61
2023/05/01 06:48:36;;;;;;;;;56.25;44.75;;;;;14.38;61.33;100936.44;4955726;28;45416;-61
2023/05/01 06:51:02;;;;;;;;;53.25;44.00;;;;;14.39;61.65;100936.38;4954734;28;45615;-61
2023/05/01 06:53:27;;;;;;;;;52.75;43.00;;;;;14.39;61.62;100928.44;4958206;28;46135;-61
2023/05/01 06:55:52;;;;;;;;;47.00;40.50;;;;;14.41;61.41;100942.44;4958252;28;53512;-60
2023/05/01 06:58:18;;;;;;;;;51.75;43.00;;;;;14.38;61.69;100926.72;4958310;28;53938;-60
2023/05/01 07:00:43;;;;;;;;;53.75;42.00;;;;;14.44;60.99;100937.00;4958842;28;45467;-61
2023/05/01 07:03:08;;;;;;;;;50.50;41.25;;;;;14.47;61.24;100942.16;4957509;28;58164;-61
2023/05/01 07:05:34;;;;;;;;;54.00;42.75;;;;;14.47;61.39;100939.50;4958076;28;45452;-61
2023/05/01 07:08:00;;;;;;;;;50.00;42.00;;;;;14.48;61.18;100935.97;4957999;28;45458;-61
2023/05/01 07:10:25;;;;;;;;;53.50;44.00;;;;;14.47;60.97;100934.22;4957802;28;45365;-61
2023/05/01 07:12:51;;;;;;;;;53.25;41.75;;;;;14.46;60.85;100939.59;4957830;28;45986;-61
2023/05/01 07:15:16;;;;;;;;;50.75;41.25;;;;;14.51;60.97;100949.03;4958480;28;45359;-61
2023/05/01 07:17:41;;;;;;;;;50.50;42.00;;;;;14.53;60.39;100943.69;4958570;28;46073;-61
2023/05/01 07:20:07;;;;;;;;;48.25;39.75;;;;;14.51;60.66;100938.47;4958656;28;45592;-61
2023/05/01 07:22:32;;;;;;;;;46.50;38.50;;;;;14.60;60.70;100946.94;4958453;28;45487;-61
2023/05/01 07:25:00;;;;;;;;;42.00;37.25;;;;;14.62;60.38;100953.88;4957757;28;45514;-61
2023/05/01 07:27:25;;;;;;;;;43.25;36.75;;;;;14.60;60.43;100945.13;4958452;28;45523;-61
2023/05/01 07:29:50;;;;;;;;;46.25;36.75;;;;;14.62;60.45;100940.63;4958418;28;45418;-60
2023/05/01 07:32:16;;;;;;;;;42.00;36.00;;;;;14.73;60.23;100953.38;4958160;28;46238;-61
2023/05/01 07:34:41;;;;;;;;;42.75;36.75;;;;;14.75;60.44;100943.59;4958340;28;45410;-60
2023/05/01 07:37:06;;;;;;;;;49.00;40.00;;;;;14.76;59.71;100954.06;4958393;28;45429;-61
2023/05/01 07:39:32;;;;;;;;;46.25;38.00;;;;;14.82;60.01;100952.06;4957377;28;45425;-61
2023/05/01 07:41:57;;;;;;;;;47.25;39.50;;;;;14.87;60.70;100960.66;4956244;28;48493;-60
2023/05/01 07:44:23;;;;;;;;;43.67;38.00;;;;;14.88;60.27;100963.22;4958113;28;45363;-61
2023/05/01 07:46:48;;;;;;;;;46.00;38.00;;;;;14.89;60.48;100958.81;4958975;28;45336;-60
2023/05/01 07:49:13;;;;;;;;;37.00;33.67;;;;;14.83;60.26;100953.78;4958334;28;45422;-60
2023/05/01 07:51:39;;;;;;;;;47.00;37.75;;;;;14.90;60.82;100966.66;4957842;28;46604;-61
2023/05/01 07:54:04;;;;;;;;;36.33;32.67;;;;;14.92;60.15;100966.59;4956685;28;54185;-60
2023/05/01 07:56:30;;;;;;;;;34.00;31.67;;;;;14.89;60.16;100958.81;4958164;28;45411;-60
2023/05/01 07:58:56;;;;;;;;;43.33;33.00;;;;;14.88;60.40;100955.28;4952003;28;45562;-60
2023/05/01 08:01:21;;;;;;;;;36.33;33.00;;;;;14.96;60.06;100969.03;4946664;28;45498;-59
2023/05/01 08:03:47;;;;;;;;;34.67;31.00;;;;;14.98;60.63;100971.59;4957729;28;45689;-59
2023/05/01 08:06:12;;;;;;;;;41.33;35.00;;;;;14.94;60.20;100960.31;4955564;28;45518;-59
2023/05/01 08:08:38;;;;;;;;;32.67;28.00;;;;;15.00;60.09;100972.41;4955437;28;45735;-58
2023/05/01 08:11:03;;;;;;;;;30.67;30.00;;;;;14.99;59.97;100962.72;4944825;28;45389;-59
2023/05/01 08:13:28;;;;;;;;;28.00;27.67;;;;;15.00;59.87;100967.94;4954058;28;45761;-60
2023/05/01 08:15:54;;;;;;;;;32.00;31.00;;;;;15.05;59.58;100974.84;4947493;28;45586;-60
2023/05/01 08:18:19;;;;;;;;;27.67;27.00;;;;;15.07;59.47;100965.88;4954233;28;45523;-60
2023/05/01 08:20:46;;;;;;;;;30.67;29.33;;;;;15.11;58.56;100970.09;4949893;28;45940;-59
2023/05/01 08:23:12;;;;;;;;;30.00;25.33;;;;;15.12;58.41;100969.13;4955304;28;45618;-60
2023/05/01 08:25:37;;;;;;;;;25.00;21.33;;;;;15.16;58.34;100973.38;4951735;28;45368;-59
2023/05/01 08:28:04;;;;;;;;;24.00;20.67;;;;;15.16;59.05;100980.47;4956352;28;45370;-59
2023/05/01 08:30:30;;;;;;;;;20.33;20.33;;;;;15.18;58.90;100981.25;4951922;28;45558;-59
2023/05/01 08:32:55;;;;;;;;;24.00;22.67;;;;;15.18;59.18;100974.16;4952904;28;45560;-59
2023/05/01 08:35:21;;;;;;;;;27.33;23.00;;;;;15.23;58.75;100976.56;4955408;28;45427;-59
2023/05/01 08:37:46;;;;;;;;;24.33;21.00;;;;;15.24;59.48;100965.06;4955157;28;45619;-59
2023/05/01 08:40:13;;;;;;;;;26.67;22.00;;;;;15.30;58.74;100971.84;4955156;28;46073;-59
2023/05/01 08:42:38;;;;;;;;;19.67;18.33;;;;;15.27;58.76;100972.00;4955176;28;45593;-59
2023/05/01 08:45:08;;;;;;;;;25.67;21.00;;;;;15.30;59.30;100983.28;4954457;28;45479;-59
2023/05/01 08:47:38;;;;;;;;;20.00;18.33;;;;;15.34;59.24;100976.03;4957072;28;45486;-59
2023/05/01 08:50:10;;;;;;;;;20.33;18.67;;;;;15.37;58.75;100976.78;4955896;28;46251;-59
2023/05/01 08:52:39;;;;;;;;;14.67;14.67;;;;;15.40;58.83;100978.41;4956732;28;45474;-59
2023/05/01 08:55:10;;;;;;;;;19.33;17.33;;;;;15.45;58.75;100989.66;4956850;28;45452;-59
2023/05/01 08:57:36;;;;;;;;;26.00;25.67;;;;;15.50;59.01;100987.63;4957092;28;45388;-59
2023/05/01 09:00:04;;;;;;;;;25.33;24.00;;;;;15.53;59.60;101002.50;4954424;28;47127;-59
2023/05/01 09:02:33;;;;;;;;;22.33;21.33;;;;;15.49;59.26;100996.50;4957138;28;45471;-59
2023/05/01 09:05:00;;;;;;;;;24.00;20.67;;;;;15.48;59.86;101009.84;4957013;28;45494;-59
2023/05/01 09:07:26;;;;;;;;;21.67;20.00;;;;;15.44;59.62;101002.03;4957073;28;45444;-59
2023/05/01 09:09:51;;;;;;;;;23.00;22.33;;;;;15.42;59.84;101003.91;4956699;28;45591;-59
2023/05/01 09:12:35;;;;;;;;;22.67;21.33;;;;;15.41;60.24;101003.97;4956610;28;57305;-59
2023/05/01 09:15:02;;;;;;;;;25.00;23.00;;;;;15.39;60.39;101000.53;4956292;28;45395;-59
2023/05/01 09:17:30;;;;;;;;;18.33;18.33;;;;;15.32;60.42;100993.84;4956985;28;45433;-59
2023/05/01 09:19:56;;;;;;;;;25.33;23.33;;;;;15.36;60.10;101003.34;4956752;28;45518;-59
2023/05/01 09:22:21;;;;;;;;;27.67;23.33;;;;;15.33;61.09;100995.53;4956688;28;45567;-60
2023/05/01 09:24:47;;;;;;;;;18.33;17.67;;;;;15.38;60.12;101004.97;4957181;28;45366;-60
2023/05/01 09:27:13;;;;;;;;;21.00;20.33;;;;;15.39;60.02;101008.47;4955477;28;45536;-58
2023/05/01 09:29:44;;;;;;;;;24.33;22.67;;;;;15.40;60.80;101012.88;4956516;28;46184;-58
2023/05/01 09:32:22;;;;;;;;;25.00;24.33;;;;;15.41;60.61;101011.91;4954866;28;45477;-58
2023/05/01 09:34:48;;;;;;;;;26.67;24.00;;;;;15.39;60.87;101017.31;4955241;28;45518;-57
2023/05/01 09:37:33;;;;;;;;;21.00;21.00;;;;;15.34;60.88;101010.50;4955026;28;45634;-60
2023/05/01 09:40:11;;;;;;;;;23.00;22.33;;;;;15.37;61.17;101018.31;4956311;28;46336;-58
2023/05/01 09:42:49;;;;;;;;;21.67;20.00;;;;;15.36;59.66;101016.59;4949277;28;45553;-59
2023/05/01 09:45:15;;;;;;;;;20.67;19.33;;;;;15.38;60.90;101009.41;4955596;28;45436;-59
2023/05/01 09:47:42;;;;;;;;;23.67;22.33;;;;;15.43;59.83;101013.56;4956452;28;45538;-59
2023/05/01 09:50:08;;;;;;;;;19.00;16.00;;;;;15.50;60.68;101010.59;4954229;28;46265;-59
2023/05/01 09:52:34;;;;;;;;;18.00;17.00;;;;;15.50;59.95;101010.59;4955266;28;45375;-59
2023/05/01 09:55:12;;;;;;;;;20.67;19.00;;;;;15.55;60.19;101014.75;4955549;28;45489;-59
2023/05/01 09:57:38;;;;;;;;;19.33;17.00;;;;;15.59;60.95;101023.44;4955161;28;45513;-59
2023/05/01 10:00:07;;;;;;;;;19.67;18.67;;;;;15.57;60.45;101026.13;4954845;28;48146;-59
2023/05/01 10:02:33;;;;;;;;;18.00;16.33;;;;;15.60;59.96;101025.13;4955537;28;45402;-60
2023/05/01 10:04:58;;;;;;;;;14.33;14.00;;;;;15.57;59.70;101018.19;4956096;28;45515;-59
2023/05/01 10:07:25;;;;;;;;;14.67;12.67;;;;;15.59;60.48;101023.44;4956426;28;45427;-59
2023/05/01 10:09:51;;;;;;;;;10.67;10.67;;;;;15.59;60.92;101020.78;4956033;28;46250;-59
2023/05/01 10:12:27;;;;;;;;;11.67;11.00;;;;;15.56;60.43;101021.78;4956204;28;45454;-59
2023/05/01 10:14:55;;;;;;;;;15.00;15.00;;;;;15.59;59.96;101024.28;4956340;28;45383;-59
2023/05/01 10:17:21;;;;;;;;;17.00;14.00;;;;;15.64;61.07;101024.06;4956132;28;45493;-59
2023/05/01 10:19:47;;;;;;;;;16.33;15.00;;;;;15.66;61.17;101024.81;4954176;28;46970;-59
2023/05/01 10:22:14;;;;;;;;;17.33;13.67;;;;;15.64;60.80;101027.56;4955828;28;45498;-59
2023/05/01 10:24:40;;;;;;;;;14.00;12.00;;;;;15.64;60.46;101026.72;4956162;28;45443;-59
2023/05/01 10:27:06;;;;;;;;;15.33;13.33;;;;;15.65;60.33;101023.97;4958830;28;45537;-59
2023/05/01 10:29:33;;;;;;;;;15.33;15.33;;;;;15.64;61.03;101026.72;4959403;28;46043;-59
2023/05/01 10:32:01;;;;;;;;;15.67;14.00;;;;;15.65;61.21;101028.41;4959108;28;45465;-59
2023/05/01 10:34:27;;;;;;;;;14.00;14.00;;;;;15.67;61.43;101029.22;4959442;28;45503;-59
2023/05/01 10:37:01;;;;;;;;;16.00;16.00;;;;;15.70;61.00;101021.13;4958375;28;45522;-59
2023/05/01 10:39:32;;;;;;;;;16.00;15.00;;;;;15.74;61.19;101016.50;4959205;28;46475;-59
2023/05/01 10:41:57;;;;;;;;;14.00;12.67;;;;;15.79;61.55;101010.03;4959313;28;45537;-59
2023/05/01 10:44:27;;;;;;;;;19.00;15.00;;;;;15.83;61.45;101008.97;4957912;28;45492;-58
2023/05/01 10:46:53;;;;;;;;;12.67;12.67;;;;;15.85;61.63;101007.09;4959252;28;45713;-59
2023/05/01 10:49:18;;;;;;;;;18.33;18.33;;;;;15.87;61.26;101010.50;4959617;28;45494;-59
2023/05/01 10:51:56;;;;;;;;;16.33;15.33;;;;;15.90;61.00;101007.72;4958683;28;45423;-60
2023/05/01 10:54:31;;;;;;;;;20.67;18.33;;;;;15.96;60.91;101014.50;4959293;28;45486;-58
2023/05/01 10:57:00;;;;;;;;;18.33;16.33;;;;;16.01;60.71;101006.28;4959061;28;45399;-60
2023/05/01 10:59:26;;;;;;;;;16.67;15.33;;;;;16.05;60.64;101003.41;4957265;28;45558;-60
2023/05/01 11:01:52;;;;;;;;;13.67;13.67;;;;;16.10;60.91;101005.84;4958892;28;45486;-60
2023/05/01 11:04:20;;;;;;;;;13.33;12.33;;;;;16.16;60.63;101004.66;4956737;28;45431;-59
2023/05/01 11:07:04;;;;;;;;;18.50;18.00;;;;;16.19;60.02;101007.16;4958751;28;45404;-59
2023/05/01 11:09:56;;;;;;;;;22.67;21.67;;;;;16.21;60.25;101005.28;4956201;28;47343;-58